Time;durP1;ratioP1;P1;durP2;ratioP2;P2;SDS_P1;SDS_P2;PMS_P1;PMS_P2;Temp;Humidity;BMP_temperature;BMP_pressure;BME280_temperature;BME280_humidity;BME280_pressure;Samples;Min_cycle;Max_cycle;Signal;HPM_P1;HPM_P2
2022/02/07 00:00:46;;;;;;;0.60;0.50;;;4.10;99.90;;;;;;5058489;28;20185;-59
2022/02/07 00:05:41;;;;;;;0.80;0.60;;;4.00;99.90;;;;;;5060568;28;20200;-59
2022/02/07 00:08:09;;;;;;;0.98;0.60;;;4.00;99.90;;;;;;5064793;28;20235;-59
2022/02/07 00:10:39;;;;;;;0.70;0.50;;;3.50;99.90;;;;;;5060831;28;20823;-60
2022/02/07 00:13:06;;;;;;;0.60;0.40;;;4.20;99.90;;;;;;5056686;28;20193;-59
2022/02/07 00:15:32;;;;;;;0.60;0.40;;;4.00;99.90;;;;;;5060084;28;20323;-60
2022/02/07 00:17:58;;;;;;;0.60;0.50;;;4.20;99.90;;;;;;5055267;28;20210;-59
2022/02/07 00:20:25;;;;;;;0.60;0.50;;;4.10;99.90;;;;;;5065469;28;20185;-59
2022/02/07 00:22:51;;;;;;;0.60;0.45;;;4.00;99.90;;;;;;5064369;28;20213;-59
2022/02/07 00:25:19;;;;;;;0.80;0.60;;;4.10;99.90;;;;;;5066951;28;20868;-58
2022/02/07 00:27:44;;;;;;;1.38;0.70;;;3.90;99.90;;;;;;5064704;28;20215;-59
2022/02/07 00:30:15;;;;;;;0.70;0.60;;;3.80;99.90;;;;;;5061976;28;20185;-59
2022/02/07 00:32:41;;;;;;;0.65;0.60;;;4.10;99.90;;;;;;5064376;28;20436;-59
2022/02/07 00:35:11;;;;;;;0.63;0.50;;;3.70;99.90;;;;;;5068986;28;20208;-59
2022/02/07 00:37:38;;;;;;;1.90;0.70;;;4.20;99.90;;;;;;5068521;28;20201;-60
2022/02/07 00:42:51;;;;;;;1.23;0.55;;;4.20;99.90;;;;;;5058160;28;20185;-59
2022/02/07 00:45:26;;;;;;;0.80;0.60;;;4.40;99.90;;;;;;5068513;28;20208;-58
2022/02/07 00:48:00;;;;;;;2.97;0.70;;;4.30;99.90;;;;;;5063210;28;20215;-58
2022/02/07 00:50:27;;;;;;;0.65;0.50;;;4.40;99.90;;;;;;5068009;28;20204;-59
2022/02/07 00:52:52;;;;;;;0.75;0.50;;;4.20;99.90;;;;;;5067978;28;20177;-59
2022/02/07 00:55:18;;;;;;;0.97;0.50;;;4.20;99.90;;;;;;5056210;28;20631;-58
2022/02/07 00:57:43;;;;;;;0.50;0.43;;;4.20;99.90;;;;;;5060704;28;20208;-61
2022/02/07 01:00:10;;;;;;;0.53;0.50;;;4.40;99.90;;;;;;5067778;28;20189;-60
2022/02/07 01:02:36;;;;;;;1.02;0.60;;;4.20;99.90;;;;;;5057028;28;20185;-57
2022/02/07 01:05:03;;;;;;;0.70;0.50;;;4.30;99.90;;;;;;5070680;28;20201;-60
2022/02/07 01:07:30;;;;;;;0.70;0.60;;;4.20;99.90;;;;;;5064550;28;20246;-60
2022/02/07 01:09:56;;;;;;;0.50;0.40;;;4.30;99.90;;;;;;5061909;28;20588;-60
2022/02/07 01:20:47;;;;;;;1.10;0.70;;;4.40;99.90;;;;;;5054925;28;20649;-60
2022/02/07 01:55:10;;;;;;;1.00;0.60;;;4.40;99.90;;;;;;5071402;28;20233;-58
2022/02/07 01:57:36;;;;;;;1.27;0.60;;;4.80;99.90;;;;;;5067577;28;20210;-59
2022/02/07 02:00:04;;;;;;;0.60;0.50;;;4.80;99.90;;;;;;5064343;28;20182;-60
2022/02/07 02:02:31;;;;;;;0.75;0.50;;;4.70;99.90;;;;;;5057195;28;20483;-59
2022/02/07 02:04:57;;;;;;;0.63;0.50;;;4.60;99.90;;;;;;5062114;28;20280;-60
2022/02/07 02:07:22;;;;;;;0.80;0.70;;;4.60;99.90;;;;;;5063890;28;20269;-59
2022/02/07 02:09:48;;;;;;;0.93;0.70;;;4.80;99.90;;;;;;5070814;28;20547;-59
2022/02/07 02:12:13;;;;;;;1.33;0.60;;;5.10;99.90;;;;;;5067489;28;20570;-60
2022/02/07 02:14:52;;;;;;;0.70;0.50;;;5.00;99.90;;;;;;5055672;28;20783;-59
2022/02/07 02:33:53;;;;;;;0.70;0.70;;;5.40;99.90;;;;;;5064982;28;20568;-60
2022/02/07 02:46:56;;;;;;;0.90;0.70;;;5.70;99.90;;;;;;5066153;28;20197;-60
2022/02/07 02:49:31;;;;;;;2.10;0.70;;;5.40;99.90;;;;;;5063171;28;20181;-59
2022/02/07 02:51:56;;;;;;;1.02;0.50;;;5.60;99.90;;;;;;5061683;28;20221;-60
2022/02/07 02:54:22;;;;;;;1.47;0.80;;;5.40;99.90;;;;;;5061593;28;20233;-59
2022/02/07 02:56:48;;;;;;;3.17;1.10;;;4.90;99.90;;;;;;5063553;28;20578;-59
2022/02/07 02:59:13;;;;;;;1.13;0.90;;;5.30;99.90;;;;;;5059267;28;20183;-59
2022/02/07 03:01:39;;;;;;;1.93;0.83;;;5.40;99.90;;;;;;5059175;28;20622;-58
2022/02/07 03:04:05;;;;;;;2.87;0.90;;;5.30;99.90;;;;;;5056858;28;20196;-60
2022/02/07 03:06:30;;;;;;;0.87;0.77;;;5.20;99.90;;;;;;5067432;28;20243;-60
2022/02/07 03:08:58;;;;;;;2.80;2.60;;;5.30;99.90;;;;;;5061415;28;20191;-60
2022/02/07 03:11:25;;;;;;;1.70;0.80;;;5.40;99.90;;;;;;5062171;28;20198;-59
2022/02/07 03:13:54;;;;;;;4.15;0.90;;;5.00;99.90;;;;;;5066794;28;20810;-60
2022/02/07 03:16:40;;;;;;;4.93;0.90;;;5.00;99.90;;;;;;5061819;28;20185;-60
2022/02/07 03:19:12;;;;;;;1.10;0.70;;;4.40;99.90;;;;;;5055571;28;20185;-59
2022/02/07 03:21:38;;;;;;;1.35;0.80;;;4.90;99.90;;;;;;5057489;28;20189;-59
2022/02/07 03:24:04;;;;;;;1.25;1.00;;;4.90;99.90;;;;;;5059205;28;20194;-59
2022/02/07 03:26:38;;;;;;;3.28;0.90;;;5.00;99.90;;;;;;5067110;28;20217;-59
2022/02/07 03:29:04;;;;;;;3.47;1.10;;;5.20;99.90;;;;;;5063878;28;20601;-60
2022/02/07 03:31:29;;;;;;;1.73;1.13;;;5.10;99.90;;;;;;5059431;28;20242;-59
2022/02/07 03:33:55;;;;;;;1.20;0.90;;;5.40;99.90;;;;;;5054193;28;20238;-59
2022/02/07 03:36:20;;;;;;;3.00;1.57;;;5.20;99.90;;;;;;5059029;28;20669;-59
2022/02/07 03:38:47;;;;;;;3.70;1.03;;;4.70;99.90;;;;;;5067658;28;20206;-60
2022/02/07 03:41:13;;;;;;;5.40;1.40;;;5.20;99.90;;;;;;5057354;28;20627;-59
2022/02/07 03:43:38;;;;;;;2.07;0.97;;;5.40;99.90;;;;;;5050352;28;20241;-59
2022/02/07 03:46:04;;;;;;;2.87;1.00;;;5.30;99.90;;;;;;5059589;28;21029;-60
2022/02/07 03:48:31;;;;;;;2.07;1.20;;;5.40;99.90;;;;;;5058452;28;20447;-59
2022/02/07 03:50:57;;;;;;;1.50;0.80;;;4.40;99.90;;;;;;5058883;28;20235;-59
2022/02/07 03:53:23;;;;;;;0.87;0.50;;;4.50;99.90;;;;;;5063470;28;20636;-59
2022/02/07 03:55:50;;;;;;;1.45;0.50;;;4.50;99.90;;;;;;5063454;28;20212;-60
2022/02/07 03:58:20;;;;;;;1.10;0.80;;;3.70;99.90;;;;;;5069219;28;20564;-58
2022/02/07 04:00:47;;;;;;;0.90;0.60;;;3.70;99.90;;;;;;5068838;28;20181;-59
2022/02/07 04:03:14;;;;;;;0.60;0.50;;;3.40;99.90;;;;;;5060300;28;20489;-60
2022/02/07 04:05:48;;;;;;;1.90;0.93;;;3.30;99.90;;;;;;5068994;28;20228;-59
2022/02/07 04:08:15;;;;;;;1.75;1.08;;;3.40;99.90;;;;;;5067342;28;20624;-58
2022/02/07 04:13:48;;;;;;;1.95;0.70;;;3.10;99.90;;;;;;5044775;28;20213;-59
2022/02/07 04:16:14;;;;;;;0.70;0.60;;;3.30;99.90;;;;;;5053040;28;20528;-59
2022/02/07 04:21:24;;;;;;;1.10;0.50;;;3.20;99.90;;;;;;5061182;28;20809;-58
2022/02/07 04:23:49;;;;;;;1.10;1.00;;;3.10;99.90;;;;;;5067232;28;20200;-59
2022/02/07 04:26:15;;;;;;;1.40;0.70;;;3.70;99.90;;;;;;5061491;28;20199;-58
2022/02/07 04:28:41;;;;;;;1.03;0.57;;;3.00;99.90;;;;;;5064590;28;20561;-59
2022/02/07 04:31:06;;;;;;;1.73;0.70;;;3.00;99.90;;;;;;5071029;28;20504;-60
2022/02/07 04:33:32;;;;;;;1.27;0.80;;;2.70;99.90;;;;;;5057046;28;20592;-59
2022/02/07 04:35:58;;;;;;;1.30;0.70;;;3.00;99.90;;;;;;5067740;28;20265;-60
2022/02/07 04:38:23;;;;;;;1.17;1.03;;;3.00;99.90;;;;;;5064050;28;20216;-59
2022/02/07 04:40:49;;;;;;;1.07;0.70;;;3.10;99.90;;;;;;5062812;28;20181;-59
2022/02/07 04:43:17;;;;;;;1.15;0.73;;;3.10;99.90;;;;;;5067417;28;20242;-59
2022/02/07 04:46:54;;;;;;;0.90;0.60;;;2.90;99.90;;;;;;5062103;28;20202;-59
2022/02/07 04:51:53;;;;;;;1.60;0.60;;;3.30;99.90;;;;;;5059694;28;20197;-59
2022/02/07 04:57:16;;;;;;;1.00;0.80;;;3.00;99.90;;;;;;5056244;28;20209;-60
2022/02/07 05:05:10;;;;;;;1.00;0.90;;;3.20;99.90;;;;;;5065415;28;20660;-59
2022/02/07 05:15:50;;;;;;;2.55;1.30;;;3.10;99.90;;;;;;5058040;28;20200;-59
2022/02/07 05:18:17;;;;;;;1.65;0.80;;;3.30;99.90;;;;;;5059666;28;20205;-60
2022/02/07 05:20:42;;;;;;;3.58;1.05;;;2.80;99.90;;;;;;5063849;28;20185;-60
2022/02/07 05:23:08;;;;;;;2.57;1.10;;;2.60;99.90;;;;;;5067788;28;20192;-60
2022/02/07 05:25:33;;;;;;;2.33;0.90;;;3.20;99.90;;;;;;5058850;28;20651;-59
2022/02/07 05:27:59;;;;;;;3.13;1.67;;;3.10;99.90;;;;;;5065023;28;20205;-59
2022/02/07 05:30:25;;;;;;;1.87;1.10;;;3.30;99.90;;;;;;5066187;28;20284;-58
2022/02/07 05:32:51;;;;;;;3.00;1.17;;;2.90;99.90;;;;;;5054954;28;21110;-60
2022/02/07 05:35:16;;;;;;;1.90;1.00;;;3.20;99.90;;;;;;5060512;28;20254;-58
2022/02/07 05:37:43;;;;;;;3.30;0.90;;;2.80;99.90;;;;;;5064771;28;20267;-58
2022/02/07 05:40:16;;;;;;;2.83;1.10;;;3.30;99.90;;;;;;5065274;28;20463;-61
2022/02/07 05:42:42;;;;;;;3.75;0.93;;;3.50;99.90;;;;;;5062317;28;20184;-61
2022/02/07 05:45:08;;;;;;;2.70;0.90;;;3.40;99.90;;;;;;5055934;28;20210;-60
2022/02/07 05:47:35;;;;;;;2.25;1.00;;;3.40;99.90;;;;;;5055137;28;20295;-58
2022/02/07 05:50:03;;;;;;;3.03;1.00;;;3.20;99.90;;;;;;5053379;28;20593;-65
2022/02/07 05:52:29;;;;;;;3.50;1.30;;;3.40;99.90;;;;;;5066938;28;20192;-62
2022/02/07 05:54:56;;;;;;;4.72;1.50;;;3.40;99.90;;;;;;5059833;28;20421;-60
2022/02/07 05:57:22;;;;;;;4.22;2.00;;;2.70;99.90;;;;;;5074628;28;20608;-62
2022/02/07 05:59:47;;;;;;;1.47;1.10;;;3.30;99.90;;;;;;5064647;28;20192;-58
2022/02/07 06:02:13;;;;;;;2.90;1.10;;;3.60;99.90;;;;;;5059015;28;20220;-57
2022/02/07 06:04:38;;;;;;;2.50;1.30;;;3.60;99.90;;;;;;5060496;28;20641;-61
2022/02/07 06:07:04;;;;;;;3.20;1.10;;;3.10;99.90;;;;;;5063468;28;20737;-60
2022/02/07 06:09:30;;;;;;;3.72;1.55;;;3.70;99.90;;;;;;5064973;28;20192;-59
2022/02/07 06:11:56;;;;;;;3.10;1.53;;;3.60;99.90;;;;;;5058282;28;20287;-59
2022/02/07 06:14:22;;;;;;;4.47;1.17;;;3.70;99.90;;;;;;5065060;28;20650;-59
2022/02/07 06:16:48;;;;;;;3.30;1.50;;;3.60;99.90;;;;;;5065391;28;20196;-59
2022/02/07 06:19:13;;;;;;;2.33;1.50;;;3.60;99.90;;;;;;5061306;28;20718;-56
2022/02/07 06:21:39;;;;;;;3.27;1.50;;;3.70;99.90;;;;;;5061426;28;20525;-57
2022/02/07 06:24:05;;;;;;;3.20;1.10;;;3.60;99.90;;;;;;5056285;28;20229;-57
2022/02/07 06:26:31;;;;;;;3.53;1.42;;;4.00;99.90;;;;;;5065271;28;20530;-56
2022/02/07 06:29:00;;;;;;;2.63;1.48;;;3.80;99.90;;;;;;5057603;28;20189;-56
2022/02/07 06:31:26;;;;;;;3.10;1.50;;;3.70;99.90;;;;;;5055040;28;20247;-56
2022/02/07 06:33:52;;;;;;;4.40;2.13;;;3.90;99.90;;;;;;5048926;28;20202;-55
2022/02/07 06:36:17;;;;;;;2.20;1.33;;;3.50;99.90;;;;;;5068302;28;20473;-59
2022/02/07 06:38:43;;;;;;;2.90;1.23;;;3.80;99.90;;;;;;5057596;28;20254;-60
2022/02/07 06:41:09;;;;;;;2.10;1.60;;;3.90;99.90;;;;;;5064428;28;20599;-59
2022/02/07 06:43:35;;;;;;;4.80;1.30;;;4.00;99.90;;;;;;5059526;28;20488;-58
2022/02/07 06:46:00;;;;;;;1.80;1.30;;;3.70;99.90;;;;;;5059120;28;20185;-58
2022/02/07 06:48:27;;;;;;;2.63;1.20;;;3.80;99.90;;;;;;5048337;28;20443;-57
2022/02/07 06:50:52;;;;;;;3.83;0.98;;;4.00;99.90;;;;;;5059097;28;20197;-57
2022/02/07 06:53:18;;;;;;;5.40;1.67;;;4.00;99.90;;;;;;5060488;28;20609;-56
2022/02/07 06:55:45;;;;;;;6.83;3.07;;;4.40;99.90;;;;;;5059547;28;20242;-57
2022/02/07 06:58:10;;;;;;;4.30;1.33;;;3.60;99.90;;;;;;5052918;28;20209;-56
2022/02/07 07:00:36;;;;;;;3.43;1.10;;;4.00;99.90;;;;;;5062159;28;20500;-59
2022/02/07 07:03:02;;;;;;;3.43;1.70;;;3.50;99.90;;;;;;5060932;28;20254;-58
2022/02/07 07:05:28;;;;;;;3.10;1.40;;;3.90;99.90;;;;;;5058463;28;20831;-57
2022/02/07 07:07:54;;;;;;;4.80;1.60;;;4.20;99.90;;;;;;5062423;28;20186;-58
2022/02/07 07:10:19;;;;;;;3.77;2.00;;;3.80;99.90;;;;;;5069615;28;20212;-59
2022/02/07 07:12:49;;;;;;;3.88;1.80;;;4.30;99.90;;;;;;5062162;28;20189;-59
2022/02/07 07:15:26;;;;;;;3.95;1.60;;;4.30;99.90;;;;;;5068331;28;20213;-58
2022/02/07 07:17:52;;;;;;;4.70;1.55;;;4.30;99.90;;;;;;5056689;28;20267;-58
2022/02/07 07:20:18;;;;;;;5.32;1.83;;;4.20;99.90;;;;;;5072380;28;20560;-57
2022/02/07 07:22:44;;;;;;;4.23;1.23;;;4.30;99.90;;;;;;5057913;28;20185;-57
2022/02/07 07:25:15;;;;;;;4.97;1.47;;;4.50;99.90;;;;;;5066434;28;20197;-58
2022/02/07 07:27:56;;;;;;;5.20;1.40;;;4.40;99.90;;;;;;5068225;28;20188;-60
2022/02/07 07:30:28;;;;;;;4.13;1.67;;;4.00;99.90;;;;;;5057382;28;20512;-60
2022/02/07 07:32:58;;;;;;;4.88;1.40;;;4.40;99.90;;;;;;5053419;28;20178;-60
2022/02/07 07:35:24;;;;;;;2.53;1.20;;;4.30;99.90;;;;;;5053503;28;20695;-59
2022/02/07 07:37:50;;;;;;;5.80;1.53;;;4.30;99.90;;;;;;5058184;28;20354;-60
2022/02/07 07:40:15;;;;;;;2.97;1.93;;;4.50;99.90;;;;;;5065201;28;20189;-59
2022/02/07 07:42:44;;;;;;;2.93;1.50;;;4.40;99.90;;;;;;5061520;28;20204;-60
2022/02/07 07:45:10;;;;;;;4.65;1.58;;;4.40;99.90;;;;;;5061073;28;20655;-61
2022/02/07 07:47:36;;;;;;;5.00;2.92;;;4.50;99.90;;;;;;5058014;28;20183;-59
2022/02/07 07:50:18;;;;;;;6.13;1.70;;;4.00;99.90;;;;;;5054150;28;20192;-59
2022/02/07 08:03:16;;;;;;;2.50;1.10;;;4.30;99.90;;;;;;5050185;28;20209;-59
2022/02/07 08:08:20;;;;;;;3.70;1.17;;;4.70;99.90;;;;;;5056999;28;21187;-59
2022/02/07 08:11:03;;;;;;;3.25;1.50;;;4.50;99.90;;;;;;5076701;28;20234;-57
2022/02/07 08:13:31;;;;;;;1.88;1.60;;;4.30;99.90;;;;;;5058952;28;20205;-60
2022/02/07 08:15:57;;;;;;;1.45;1.20;;;4.10;99.90;;;;;;5056820;28;20294;-62
2022/02/07 08:18:23;;;;;;;5.40;2.28;;;4.00;99.90;;;;;;5050512;28;20497;-58
2022/02/07 08:20:48;;;;;;;5.07;1.97;;;4.30;99.90;;;;;;5063243;28;22036;-57
2022/02/07 08:23:14;;;;;;;11.10;2.00;;;4.40;99.90;;;;;;5057787;28;20174;-59
2022/02/07 08:25:40;;;;;;;4.27;1.33;;;4.70;99.90;;;;;;5058867;28;20228;-57
2022/02/07 08:28:06;;;;;;;4.33;2.53;;;4.40;99.90;;;;;;5057534;28;20240;-57
2022/02/07 08:30:33;;;;;;;5.03;2.25;;;4.70;99.90;;;;;;5071069;28;20461;-58
2022/02/07 08:33:00;;;;;;;4.55;3.30;;;4.90;99.90;;;;;;5053511;28;20198;-59
2022/02/07 08:35:26;;;;;;;6.47;1.58;;;4.50;99.90;;;;;;5062225;28;20246;-67
2022/02/07 08:37:52;;;;;;;2.92;1.20;;;4.60;99.90;;;;;;5051880;28;20205;-58
2022/02/07 08:40:19;;;;;;;3.95;1.67;;;4.70;99.90;;;;;;5062387;28;20274;-57
2022/02/07 08:42:44;;;;;;;2.95;1.35;;;4.70;99.90;;;;;;5071357;28;20181;-58
2022/02/07 08:45:10;;;;;;;2.80;1.50;;;4.80;99.90;;;;;;5065720;28;20213;-57
2022/02/07 08:47:36;;;;;;;2.80;1.07;;;4.90;99.90;;;;;;5057516;28;20446;-60
2022/02/07 08:50:03;;;;;;;3.55;1.40;;;5.00;99.90;;;;;;5060245;28;20537;-57
2022/02/07 08:52:28;;;;;;;1.98;1.30;;;5.50;99.90;;;;;;5067307;28;20189;-58
2022/02/07 08:54:56;;;;;;;3.93;1.40;;;5.10;99.90;;;;;;5064432;28;20275;-56
2022/02/07 08:57:31;;;;;;;3.72;1.38;;;5.40;99.90;;;;;;5067885;28;20207;-58
2022/02/07 09:00:12;;;;;;;3.22;1.38;;;5.10;99.90;;;;;;5061371;28;20180;-59
2022/02/07 09:08:07;;;;;;;2.70;1.20;;;6.50;99.90;;;;;;5063068;28;20276;-60
2022/02/07 09:10:33;;;;;;;6.43;1.80;;;6.40;99.90;;;;;;5051719;28;20184;-61
2022/02/07 09:12:59;;;;;;;2.17;1.60;;;6.60;99.90;;;;;;5052934;28;20186;-60
2022/02/07 09:15:31;;;;;;;3.27;1.50;;;7.00;99.90;;;;;;5067897;28;20706;-60
2022/02/07 09:18:04;;;;;;;3.75;1.90;;;7.00;98.60;;;;;;5058548;28;20528;-61
2022/02/07 09:20:30;;;;;;;3.88;2.05;;;7.70;98.20;;;;;;5059377;28;20665;-58
2022/02/07 09:22:55;;;;;;;3.35;1.63;;;7.90;98.30;;;;;;5062031;28;20216;-59
2022/02/07 09:25:21;;;;;;;2.27;1.50;;;8.80;97.90;;;;;;5059982;28;20225;-60
2022/02/07 09:27:47;;;;;;;3.47;1.43;;;9.20;95.90;;;;;;5055750;28;20188;-59
2022/02/07 09:30:13;;;;;;;3.33;2.00;;;9.30;94.50;;;;;;5066462;28;20185;-67
2022/02/07 09:32:38;;;;;;;3.07;1.50;;;9.40;95.10;;;;;;5061396;28;20689;-56
2022/02/07 09:35:04;;;;;;;5.93;2.33;;;8.80;93.90;;;;;;5079387;28;20455;-57
2022/02/07 09:37:30;;;;;;;3.25;2.05;;;8.70;95.10;;;;;;5056392;28;20701;-56
2022/02/07 09:39:56;;;;;;;3.90;2.57;;;8.50;95.40;;;;;;5063259;28;20193;-57
2022/02/07 09:42:24;;;;;;;3.87;1.57;;;8.70;95.20;;;;;;5054421;28;20196;-58
2022/02/07 09:44:53;;;;;;;3.78;1.65;;;8.70;94.40;;;;;;5070313;28;20204;-60
2022/02/07 09:47:20;;;;;;;3.70;2.05;;;8.40;94.40;;;;;;5050048;28;20185;-61
2022/02/07 09:49:47;;;;;;;4.80;1.85;;;9.00;94.80;;;;;;5053718;28;20703;-61
2022/02/07 09:52:12;;;;;;;5.38;1.90;;;9.60;93.50;;;;;;5061838;28;20590;-60
2022/02/07 09:54:40;;;;;;;3.10;1.50;;;10.40;92.90;;;;;;5065707;28;20205;-60
2022/02/07 09:57:08;;;;;;;2.60;1.27;;;11.10;90.90;;;;;;5054210;28;20471;-64
2022/02/07 09:59:35;;;;;;;4.70;1.48;;;11.70;88.00;;;;;;5052312;28;20602;-59
2022/02/07 10:02:04;;;;;;;1.27;1.13;;;12.30;84.80;;;;;;5056938;28;20189;-59
2022/02/07 10:04:39;;;;;;;5.05;2.08;;;11.20;84.00;;;;;;5059781;28;20204;-59
2022/02/07 10:07:40;;;;;;;4.55;1.83;;;10.90;84.60;;;;;;5061648;28;20186;-59
2022/02/07 10:10:33;;;;;;;4.93;1.40;;;10.70;89.40;;;;;;5064015;28;20549;-58
2022/02/07 10:21:20;;;;;;;2.47;1.20;;;8.80;91.80;;;;;;5060443;28;20529;-62
2022/02/07 10:40:32;;;;;;;3.65;1.25;;;10.40;90.80;;;;;;5057723;28;20177;-60
2022/02/07 10:46:02;;;;;;;3.60;1.63;;;10.60;86.00;;;;;;5069532;28;20198;-59
2022/02/07 10:48:37;;;;;;;6.85;1.52;;;11.40;85.10;;;;;;5055983;28;20200;-58
2022/02/07 10:51:25;;;;;;;2.88;1.20;;;11.80;82.10;;;;;;5063451;28;20249;-60
2022/02/07 10:53:52;;;;;;;2.40;1.15;;;11.50;82.70;;;;;;5060218;28;20214;-57
2022/02/07 10:56:21;;;;;;;2.45;1.35;;;11.70;81.50;;;;;;5051549;28;20389;-57
2022/02/07 10:58:52;;;;;;;3.10;1.60;;;12.30;80.80;;;;;;5054543;28;20208;-60
2022/02/07 11:01:32;;;;;;;4.30;1.30;;;12.20;79.00;;;;;;5063634;28;20535;-62
2022/02/07 11:04:04;;;;;;;2.80;1.67;;;12.30;80.60;;;;;;5051134;28;20601;-58
2022/02/07 11:06:34;;;;;;;2.08;1.27;;;12.00;78.30;;;;;;5064371;28;20531;-57
2022/02/07 11:14:04;;;;;;;3.60;1.65;;;12.20;77.60;;;;;;5063630;28;20222;-58
2022/02/07 11:27:48;;;;;;;4.68;2.35;;;9.90;85.10;;;;;;5061341;28;20192;-62
2022/02/07 11:30:15;;;;;;;4.50;1.92;;;9.50;86.20;;;;;;5060101;28;20294;-60
2022/02/07 11:35:14;;;;;;;4.00;1.70;;;9.50;87.70;;;;;;5067159;28;20236;-60
2022/02/07 11:37:41;;;;;;;4.47;1.60;;;8.80;88.20;;;;;;5062940;28;20230;-60
2022/02/07 11:40:26;;;;;;;2.38;1.60;;;8.80;88.60;;;;;;5066894;28;20245;-60
2022/02/07 11:43:11;;;;;;;3.55;1.20;;;8.40;89.40;;;;;;5058095;28;20253;-59
2022/02/07 11:45:57;;;;;;;2.50;1.40;;;8.20;88.80;;;;;;5065306;28;20239;-61
2022/02/07 11:48:47;;;;;;;4.40;1.58;;;8.40;91.20;;;;;;5050868;28;20578;-61
2022/02/07 11:51:16;;;;;;;4.45;1.80;;;8.10;90.60;;;;;;5063434;28;20591;-58
2022/02/07 11:53:47;;;;;;;2.60;1.35;;;8.10;91.50;;;;;;5060647;28;20209;-57
2022/02/07 11:57:06;;;;;;;3.50;1.40;;;8.40;91.10;;;;;;5057129;28;20275;-59
2022/02/07 12:02:15;;;;;;;4.03;2.03;;;7.90;91.40;;;;;;5056772;28;22102;-59
2022/02/07 12:04:45;;;;;;;2.30;1.15;;;7.80;91.80;;;;;;5059394;28;20824;-58
2022/02/07 12:07:11;;;;;;;5.60;1.90;;;7.90;92.00;;;;;;5063032;28;20188;-59
2022/02/07 12:09:38;;;;;;;3.03;1.77;;;7.60;91.70;;;;;;5050384;28;20581;-58
2022/02/07 12:12:25;;;;;;;2.63;1.23;;;7.80;92.20;;;;;;5057757;28;20190;-60
2022/02/07 12:14:51;;;;;;;3.38;1.17;;;7.70;91.40;;;;;;5063410;28;20697;-63
2022/02/07 12:17:42;;;;;;;2.42;1.80;;;7.50;92.00;;;;;;5052626;28;20778;-64
2022/02/07 12:20:11;;;;;;;3.45;1.45;;;7.70;91.90;;;;;;5066182;28;20212;-66
2022/02/07 12:22:58;;;;;;;7.78;1.42;;;7.70;92.00;;;;;;5067250;28;20947;-64
2022/02/07 12:25:38;;;;;;;2.38;1.55;;;7.60;91.70;;;;;;5071863;28;20208;-64
2022/02/07 12:28:08;;;;;;;7.80;1.55;;;7.80;92.60;;;;;;5061938;28;20267;-64
2022/02/07 12:33:21;;;;;;;2.88;1.17;;;7.70;91.40;;;;;;5058114;28;20193;-66
2022/02/07 12:35:47;;;;;;;3.97;2.85;;;7.60;91.90;;;;;;5066532;28;20668;-65
2022/02/07 12:38:12;;;;;;;3.23;1.53;;;8.30;92.20;;;;;;5056850;28;20212;-68
2022/02/07 12:40:40;;;;;;;3.40;1.60;;;7.90;91.40;;;;;;5066488;28;20177;-66
2022/02/07 12:43:12;;;;;;;5.50;2.53;;;7.90;92.00;;;;;;5066016;28;20199;-64
2022/02/07 12:45:40;;;;;;;6.25;2.22;;;8.00;91.70;;;;;;5064868;28;20236;-62
2022/02/07 12:48:14;;;;;;;4.20;1.70;;;8.10;91.60;;;;;;5052414;28;20278;-66
2022/02/07 12:50:51;;;;;;;2.85;1.42;;;8.50;92.30;;;;;;5069938;28;20666;-65
2022/02/07 12:53:18;;;;;;;8.48;1.80;;;8.10;91.60;;;;;;5066725;28;20287;-66
2022/02/07 12:55:55;;;;;;;2.53;1.60;;;8.50;91.40;;;;;;5066477;28;20205;-58
2022/02/07 12:58:24;;;;;;;2.00;1.60;;;8.30;91.00;;;;;;5061784;28;20382;-58
2022/02/07 13:00:51;;;;;;;6.15;2.75;;;8.20;91.20;;;;;;5064823;28;20266;-61
2022/02/07 13:03:17;;;;;;;3.53;1.75;;;8.40;91.60;;;;;;5058543;28;20182;-59
2022/02/07 13:05:47;;;;;;;5.53;1.80;;;8.00;92.00;;;;;;5061336;28;20213;-59
2022/02/07 13:08:17;;;;;;;5.43;1.73;;;7.80;92.50;;;;;;5063256;28;20177;-57
2022/02/07 13:10:54;;;;;;;2.45;1.80;;;7.90;92.90;;;;;;5065483;28;20560;-58
2022/02/07 13:15:47;;;;;;;3.83;2.07;;;7.60;93.60;;;;;;5061548;28;20279;-62
2022/02/07 13:18:16;;;;;;;4.25;1.80;;;6.90;93.10;;;;;;5051785;28;20209;-60
2022/02/07 13:20:43;;;;;;;5.65;2.03;;;7.50;93.70;;;;;;5060496;28;20613;-58
2022/02/07 13:23:14;;;;;;;3.85;1.40;;;7.80;94.20;;;;;;5058958;28;20182;-58
2022/02/07 13:25:53;;;;;;;3.83;1.60;;;7.40;94.00;;;;;;5054123;28;20204;-57
2022/02/07 13:28:21;;;;;;;3.05;1.70;;;7.10;94.60;;;;;;5061935;28;20181;-59
2022/02/07 13:30:49;;;;;;;5.25;1.90;;;7.10;94.30;;;;;;5069881;28;20235;-59
2022/02/07 13:33:15;;;;;;;5.00;1.45;;;6.90;94.40;;;;;;5057504;28;20182;-59
2022/02/07 13:35:45;;;;;;;4.80;2.13;;;7.70;94.40;;;;;;5070833;28;20205;-59
2022/02/07 13:38:13;;;;;;;4.07;1.80;;;7.60;94.90;;;;;;5062620;28;20849;-58
2022/02/07 13:40:42;;;;;;;4.28;1.85;;;7.50;94.30;;;;;;5062013;28;20188;-59
2022/02/07 13:43:17;;;;;;;2.45;1.55;;;7.40;94.20;;;;;;5057611;28;20260;-57
2022/02/07 13:45:43;;;;;;;3.72;1.83;;;7.80;94.40;;;;;;5062713;28;20695;-58
2022/02/07 13:48:13;;;;;;;6.53;2.13;;;7.80;94.10;;;;;;5061173;28;20184;-62
2022/02/07 13:50:41;;;;;;;6.55;1.48;;;7.80;94.20;;;;;;5063202;28;20693;-58
2022/02/07 13:53:06;;;;;;;3.22;1.65;;;8.00;94.00;;;;;;5068787;28;20185;-58
2022/02/07 13:55:40;;;;;;;7.00;1.90;;;8.30;94.20;;;;;;5062357;28;20827;-67
2022/02/07 13:58:36;;;;;;;8.75;1.45;;;8.10;93.60;;;;;;5061769;28;20530;-59
2022/02/07 14:01:23;;;;;;;4.57;1.95;;;7.70;93.50;;;;;;5062841;28;20178;-59
2022/02/07 14:03:51;;;;;;;3.85;1.92;;;7.60;93.70;;;;;;5055448;28;20709;-69
2022/02/07 14:06:20;;;;;;;3.10;1.20;;;8.20;94.00;;;;;;5066696;28;20181;-69
2022/02/07 14:08:52;;;;;;;4.43;2.08;;;8.00;93.50;;;;;;5058342;28;20185;-66
2022/02/07 14:11:26;;;;;;;2.50;1.75;;;7.80;93.40;;;;;;5065684;28;20727;-67
2022/02/07 14:13:54;;;;;;;3.85;1.45;;;7.90;93.50;;;;;;5060091;28;20221;-68
2022/02/07 14:16:22;;;;;;;2.83;1.45;;;7.80;93.50;;;;;;5050307;28;20559;-67
2022/02/07 14:18:48;;;;;;;3.05;1.90;;;7.90;93.40;;;;;;5049984;28;20209;-66
2022/02/07 14:21:17;;;;;;;3.65;1.95;;;7.90;93.80;;;;;;5059460;28;20189;-65
2022/02/07 14:23:45;;;;;;;2.03;1.40;;;7.90;93.80;;;;;;5068801;28;20232;-68
2022/02/07 14:26:15;;;;;;;2.97;1.88;;;7.50;93.60;;;;;;5051699;28;20315;-67
2022/02/07 14:28:41;;;;;;;4.93;1.60;;;7.80;93.90;;;;;;5060074;28;20185;-64
2022/02/07 14:31:11;;;;;;;2.80;1.60;;;7.70;93.80;;;;;;5060248;28;20559;-59
2022/02/07 14:33:37;;;;;;;6.75;3.45;;;7.80;93.70;;;;;;5055694;28;20267;-60
2022/02/07 14:36:03;;;;;;;5.15;1.95;;;7.50;93.20;;;;;;5055669;28;20180;-61
2022/02/07 14:38:28;;;;;;;4.33;1.70;;;7.70;93.50;;;;;;5054595;28;20212;-61
2022/02/07 14:40:54;;;;;;;3.60;1.57;;;7.40;93.30;;;;;;5056790;28;20260;-60
2022/02/07 14:43:30;;;;;;;2.70;1.77;;;7.60;93.60;;;;;;5064881;28;20244;-59
2022/02/07 14:48:31;;;;;;;4.10;1.92;;;7.80;93.20;;;;;;5061885;28;20189;-61
2022/02/07 14:50:57;;;;;;;3.58;2.22;;;7.70;93.30;;;;;;5064601;28;20271;-62
2022/02/07 14:53:23;;;;;;;3.87;2.00;;;7.60;93.00;;;;;;5067104;28;20304;-61
2022/02/07 14:55:50;;;;;;;6.78;2.30;;;7.80;93.20;;;;;;5050721;28;20414;-60
2022/02/07 14:58:16;;;;;;;8.18;2.08;;;7.80;93.50;;;;;;5054611;28;20193;-64
2022/02/07 15:00:42;;;;;;;2.67;1.93;;;7.60;93.20;;;;;;5062465;28;20191;-64
2022/02/07 15:03:10;;;;;;;4.50;1.60;;;7.60;93.40;;;;;;5056588;28;20435;-63
2022/02/07 15:05:36;;;;;;;3.38;1.42;;;7.90;93.70;;;;;;5065162;28;20207;-63
2022/02/07 15:08:03;;;;;;;4.75;1.92;;;7.40;93.50;;;;;;5070581;28;20214;-61
2022/02/07 15:10:29;;;;;;;4.18;1.60;;;7.10;93.70;;;;;;5055430;28;20662;-61
2022/02/07 15:12:55;;;;;;;4.13;1.90;;;7.10;93.60;;;;;;5069517;28;20188;-64
2022/02/07 15:15:21;;;;;;;2.90;2.20;;;7.10;93.80;;;;;;5072088;28;20219;-64
2022/02/07 15:17:46;;;;;;;3.60;1.88;;;7.00;94.10;;;;;;5047346;28;20458;-58
2022/02/07 15:20:13;;;;;;;7.77;1.97;;;6.90;94.40;;;;;;5055141;28;20551;-61
2022/02/07 15:22:46;;;;;;;4.13;2.08;;;6.90;94.50;;;;;;5053847;28;20582;-64
2022/02/07 15:25:18;;;;;;;3.08;1.83;;;6.70;94.70;;;;;;5060189;28;20204;-63
2022/02/07 15:27:44;;;;;;;3.78;1.92;;;6.60;94.90;;;;;;5058415;28;20188;-66
2022/02/07 15:30:11;;;;;;;4.35;1.70;;;6.90;95.40;;;;;;5052881;28;20204;-66
2022/02/07 15:32:41;;;;;;;3.90;1.63;;;6.80;95.70;;;;;;5063914;28;20822;-66
2022/02/07 15:35:07;;;;;;;5.03;2.13;;;6.80;95.50;;;;;;5060001;28;20215;-64
2022/02/07 15:37:34;;;;;;;3.03;1.65;;;6.70;95.40;;;;;;5060596;28;20213;-61
2022/02/07 15:40:00;;;;;;;5.93;2.10;;;6.60;95.60;;;;;;5070713;28;20218;-60
2022/02/07 15:42:26;;;;;;;7.07;2.20;;;6.50;95.30;;;;;;5063531;28;20185;-60
2022/02/07 15:44:56;;;;;;;5.50;2.40;;;6.50;95.50;;;;;;5051759;28;20806;-58
2022/02/07 15:47:22;;;;;;;3.90;2.00;;;6.50;95.80;;;;;;5054706;28;21898;-59
2022/02/07 15:49:48;;;;;;;4.80;1.70;;;6.40;95.30;;;;;;5064635;28;20216;-58
2022/02/07 15:52:14;;;;;;;6.25;1.73;;;6.30;95.40;;;;;;5058474;28;20191;-60
2022/02/07 15:54:42;;;;;;;7.67;1.87;;;6.20;95.40;;;;;;5065560;28;20765;-60
2022/02/07 15:57:10;;;;;;;3.25;1.60;;;6.10;95.70;;;;;;5062002;28;20462;-57